sensor_id;sensor_type;location;lat;lon;timestamp;P1;durP1;ratioP1;P2;durP2;ratioP2
13801;SDS011;6972;51.518;6.918;2023-09-19T00:01:08;8.82;;;3.03;;
13801;SDS011;6972;51.518;6.918;2023-09-19T00:03:34;12.07;;;3.17;;
13801;SDS011;6972;51.518;6.918;2023-09-19T00:06:04;10.35;;;3.03;;
13801;SDS011;6972;51.518;6.918;2023-09-19T00:08:32;8.52;;;2.80;;
13801;SDS011;6972;51.518;6.918;2023-09-19T00:10:58;11.10;;;3.28;;
13801;SDS011;6972;51.518;6.918;2023-09-19T00:13:30;10.45;;;3.05;;
13801;SDS011;6972;51.518;6.918;2023-09-19T00:16:00;7.25;;;2.55;;
13801;SDS011;6972;51.518;6.918;2023-09-19T00:18:26;10.85;;;2.83;;
13801;SDS011;6972;51.518;6.918;2023-09-19T00:20:57;6.18;;;2.20;;
13801;SDS011;6972;51.518;6.918;2023-09-19T00:23:23;10.90;;;2.70;;
13801;SDS011;6972;51.518;6.918;2023-09-19T00:25:50;12.43;;;3.00;;
13801;SDS011;6972;51.518;6.918;2023-09-19T00:28:16;11.95;;;3.03;;
13801;SDS011;6972;51.518;6.918;2023-09-19T00:30:43;9.52;;;2.60;;
13801;SDS011;6972;51.518;6.918;2023-09-19T00:33:10;11.00;;;2.60;;
13801;SDS011;6972;51.518;6.918;2023-09-19T00:35:46;10.48;;;2.75;;
13801;SDS011;6972;51.518;6.918;2023-09-19T00:38:12;12.25;;;2.95;;
13801;SDS011;6972;51.518;6.918;2023-09-19T00:40:45;10.73;;;2.92;;
13801;SDS011;6972;51.518;6.918;2023-09-19T00:43:11;8.90;;;2.65;;
13801;SDS011;6972;51.518;6.918;2023-09-19T00:45:37;7.55;;;2.40;;
13801;SDS011;6972;51.518;6.918;2023-09-19T00:48:04;7.38;;;2.40;;
13801;SDS011;6972;51.518;6.918;2023-09-19T00:50:33;8.57;;;2.50;;
13801;SDS011;6972;51.518;6.918;2023-09-19T00:53:00;8.48;;;2.58;;
13801;SDS011;6972;51.518;6.918;2023-09-19T00:55:26;12.65;;;2.72;;
13801;SDS011;6972;51.518;6.918;2023-09-19T00:58:00;10.57;;;2.83;;
13801;SDS011;6972;51.518;6.918;2023-09-19T01:00:26;12.00;;;2.78;;
13801;SDS011;6972;51.518;6.918;2023-09-19T01:02:53;14.23;;;3.25;;
13801;SDS011;6972;51.518;6.918;2023-09-19T01:05:19;7.15;;;2.40;;
13801;SDS011;6972;51.518;6.918;2023-09-19T01:07:45;9.98;;;2.30;;
13801;SDS011;6972;51.518;6.918;2023-09-19T01:10:14;12.07;;;2.95;;
13801;SDS011;6972;51.518;6.918;2023-09-19T01:23:17;5.72;;;2.33;;
13801;SDS011;6972;51.518;6.918;2023-09-19T01:28:31;12.48;;;3.05;;
13801;SDS011;6972;51.518;6.918;2023-09-19T01:31:02;10.65;;;3.00;;
13801;SDS011;6972;51.518;6.918;2023-09-19T01:33:28;11.52;;;3.00;;
13801;SDS011;6972;51.518;6.918;2023-09-19T01:35:59;8.52;;;2.45;;
13801;SDS011;6972;51.518;6.918;2023-09-19T01:38:25;7.03;;;2.60;;
13801;SDS011;6972;51.518;6.918;2023-09-19T01:41:00;11.27;;;3.05;;
13801;SDS011;6972;51.518;6.918;2023-09-19T01:43:41;7.68;;;2.60;;
13801;SDS011;6972;51.518;6.918;2023-09-19T01:46:29;10.50;;;2.83;;
13801;SDS011;6972;51.518;6.918;2023-09-19T01:48:58;9.80;;;2.95;;
13801;SDS011;6972;51.518;6.918;2023-09-19T01:51:40;7.85;;;2.58;;
13801;SDS011;6972;51.518;6.918;2023-09-19T01:54:11;10.05;;;2.63;;
13801;SDS011;6972;51.518;6.918;2023-09-19T01:59:24;5.78;;;2.42;;
13801;SDS011;6972;51.518;6.918;2023-09-19T02:01:54;13.35;;;3.13;;
13801;SDS011;6972;51.518;6.918;2023-09-19T02:04:21;5.22;;;2.15;;
13801;SDS011;6972;51.518;6.918;2023-09-19T02:06:47;10.65;;;2.60;;
13801;SDS011;6972;51.518;6.918;2023-09-19T02:09:14;8.23;;;2.63;;
13801;SDS011;6972;51.518;6.918;2023-09-19T02:11:40;8.00;;;2.45;;
13801;SDS011;6972;51.518;6.918;2023-09-19T02:14:06;8.60;;;2.17;;
13801;SDS011;6972;51.518;6.918;2023-09-19T02:16:33;12.35;;;2.65;;
13801;SDS011;6972;51.518;6.918;2023-09-19T02:18:59;12.85;;;3.25;;
13801;SDS011;6972;51.518;6.918;2023-09-19T02:21:26;13.10;;;2.92;;
13801;SDS011;6972;51.518;6.918;2023-09-19T02:23:55;9.63;;;2.40;;
13801;SDS011;6972;51.518;6.918;2023-09-19T02:26:21;6.25;;;2.55;;
13801;SDS011;6972;51.518;6.918;2023-09-19T02:28:52;10.65;;;2.83;;
13801;SDS011;6972;51.518;6.918;2023-09-19T02:31:18;8.40;;;2.67;;
13801;SDS011;6972;51.518;6.918;2023-09-19T02:33:44;9.07;;;2.47;;
13801;SDS011;6972;51.518;6.918;2023-09-19T02:36:11;11.45;;;3.00;;
13801;SDS011;6972;51.518;6.918;2023-09-19T02:38:37;12.02;;;3.65;;
13801;SDS011;6972;51.518;6.918;2023-09-19T02:41:03;15.50;;;3.13;;
13801;SDS011;6972;51.518;6.918;2023-09-19T02:43:29;8.27;;;2.90;;
13801;SDS011;6972;51.518;6.918;2023-09-19T02:45:56;13.48;;;2.53;;
13801;SDS011;6972;51.518;6.918;2023-09-19T02:48:24;9.52;;;2.88;;
13801;SDS011;6972;51.518;6.918;2023-09-19T02:50:51;8.27;;;2.75;;
13801;SDS011;6972;51.518;6.918;2023-09-19T02:53:17;12.07;;;2.70;;
13801;SDS011;6972;51.518;6.918;2023-09-19T02:55:44;17.20;;;2.97;;
13801;SDS011;6972;51.518;6.918;2023-09-19T02:58:13;10.43;;;2.70;;
13801;SDS011;6972;51.518;6.918;2023-09-19T03:00:39;10.77;;;3.05;;
13801;SDS011;6972;51.518;6.918;2023-09-19T03:03:07;9.07;;;3.28;;
13801;SDS011;6972;51.518;6.918;2023-09-19T03:05:36;12.05;;;3.35;;
13801;SDS011;6972;51.518;6.918;2023-09-19T03:08:03;12.82;;;2.75;;
13801;SDS011;6972;51.518;6.918;2023-09-19T03:10:30;10.60;;;3.22;;
13801;SDS011;6972;51.518;6.918;2023-09-19T03:12:56;10.88;;;3.20;;
13801;SDS011;6972;51.518;6.918;2023-09-19T03:15:25;11.15;;;3.13;;
13801;SDS011;6972;51.518;6.918;2023-09-19T03:17:51;7.55;;;2.95;;
13801;SDS011;6972;51.518;6.918;2023-09-19T03:20:18;11.65;;;3.00;;
13801;SDS011;6972;51.518;6.918;2023-09-19T03:22:46;8.27;;;3.08;;
13801;SDS011;6972;51.518;6.918;2023-09-19T03:25:13;11.55;;;2.35;;
13801;SDS011;6972;51.518;6.918;2023-09-19T03:27:39;10.75;;;3.28;;
13801;SDS011;6972;51.518;6.918;2023-09-19T03:30:06;15.15;;;3.05;;
13801;SDS011;6972;51.518;6.918;2023-09-19T03:32:34;9.15;;;2.80;;
13801;SDS011;6972;51.518;6.918;2023-09-19T03:35:00;9.52;;;2.20;;
13801;SDS011;6972;51.518;6.918;2023-09-19T03:37:26;10.43;;;2.55;;
13801;SDS011;6972;51.518;6.918;2023-09-19T03:39:52;12.35;;;3.30;;
13801;SDS011;6972;51.518;6.918;2023-09-19T03:42:18;4.95;;;2.20;;
13801;SDS011;6972;51.518;6.918;2023-09-19T03:44:50;10.05;;;2.45;;
13801;SDS011;6972;51.518;6.918;2023-09-19T03:47:17;7.15;;;2.60;;
13801;SDS011;6972;51.518;6.918;2023-09-19T03:49:44;8.15;;;2.28;;
13801;SDS011;6972;51.518;6.918;2023-09-19T03:52:10;11.27;;;2.50;;
13801;SDS011;6972;51.518;6.918;2023-09-19T03:54:36;13.90;;;2.92;;
13801;SDS011;6972;51.518;6.918;2023-09-19T03:57:02;10.65;;;2.40;;
13801;SDS011;6972;51.518;6.918;2023-09-19T03:59:29;11.23;;;3.15;;
13801;SDS011;6972;51.518;6.918;2023-09-19T04:01:55;9.15;;;2.38;;
13801;SDS011;6972;51.518;6.918;2023-09-19T04:04:24;5.40;;;2.60;;
13801;SDS011;6972;51.518;6.918;2023-09-19T04:06:51;10.00;;;3.13;;
13801;SDS011;6972;51.518;6.918;2023-09-19T04:09:17;7.32;;;2.65;;
13801;SDS011;6972;51.518;6.918;2023-09-19T04:11:43;8.75;;;2.50;;
13801;SDS011;6972;51.518;6.918;2023-09-19T04:14:09;9.98;;;3.13;;
13801;SDS011;6972;51.518;6.918;2023-09-19T04:16:35;11.18;;;2.70;;
13801;SDS011;6972;51.518;6.918;2023-09-19T04:19:01;10.52;;;3.55;;
13801;SDS011;6972;51.518;6.918;2023-09-19T04:21:28;10.05;;;2.60;;
13801;SDS011;6972;51.518;6.918;2023-09-19T04:23:54;7.82;;;2.40;;
13801;SDS011;6972;51.518;6.918;2023-09-19T04:26:20;6.00;;;2.55;;
13801;SDS011;6972;51.518;6.918;2023-09-19T04:28:47;10.88;;;3.53;;
13801;SDS011;6972;51.518;6.918;2023-09-19T04:31:13;7.82;;;2.42;;
13801;SDS011;6972;51.518;6.918;2023-09-19T04:33:39;12.02;;;2.67;;
13801;SDS011;6972;51.518;6.918;2023-09-19T04:36:05;9.05;;;2.70;;
13801;SDS011;6972;51.518;6.918;2023-09-19T04:38:32;8.43;;;2.63;;
13801;SDS011;6972;51.518;6.918;2023-09-19T04:40:58;8.02;;;2.40;;
13801;SDS011;6972;51.518;6.918;2023-09-19T04:43:25;7.75;;;2.40;;
13801;SDS011;6972;51.518;6.918;2023-09-19T04:45:51;11.63;;;2.67;;
13801;SDS011;6972;51.518;6.918;2023-09-19T04:48:21;16.90;;;3.15;;
13801;SDS011;6972;51.518;6.918;2023-09-19T04:50:49;7.40;;;2.53;;
13801;SDS011;6972;51.518;6.918;2023-09-19T04:53:16;10.43;;;3.20;;
13801;SDS011;6972;51.518;6.918;2023-09-19T04:55:42;7.85;;;2.72;;
13801;SDS011;6972;51.518;6.918;2023-09-19T04:58:08;9.02;;;2.60;;
13801;SDS011;6972;51.518;6.918;2023-09-19T05:00:35;11.00;;;3.10;;
13801;SDS011;6972;51.518;6.918;2023-09-19T05:03:01;12.68;;;2.78;;
13801;SDS011;6972;51.518;6.918;2023-09-19T05:05:29;10.35;;;3.10;;
13801;SDS011;6972;51.518;6.918;2023-09-19T05:07:55;11.23;;;2.95;;
13801;SDS011;6972;51.518;6.918;2023-09-19T05:10:21;8.68;;;2.95;;
13801;SDS011;6972;51.518;6.918;2023-09-19T05:12:47;9.68;;;2.60;;
13801;SDS011;6972;51.518;6.918;2023-09-19T05:15:16;9.63;;;2.70;;
13801;SDS011;6972;51.518;6.918;2023-09-19T05:17:47;12.57;;;2.95;;
13801;SDS011;6972;51.518;6.918;2023-09-19T05:20:15;10.32;;;3.00;;
13801;SDS011;6972;51.518;6.918;2023-09-19T05:22:41;9.23;;;3.00;;
13801;SDS011;6972;51.518;6.918;2023-09-19T05:25:08;9.30;;;2.72;;
13801;SDS011;6972;51.518;6.918;2023-09-19T05:27:34;8.88;;;2.70;;
13801;SDS011;6972;51.518;6.918;2023-09-19T05:30:00;11.48;;;3.60;;
13801;SDS011;6972;51.518;6.918;2023-09-19T05:32:27;13.27;;;3.33;;
13801;SDS011;6972;51.518;6.918;2023-09-19T05:34:53;12.15;;;3.50;;
13801;SDS011;6972;51.518;6.918;2023-09-19T05:37:21;11.88;;;3.13;;
13801;SDS011;6972;51.518;6.918;2023-09-19T05:39:48;8.27;;;2.53;;
13801;SDS011;6972;51.518;6.918;2023-09-19T05:42:14;9.90;;;2.80;;
13801;SDS011;6972;51.518;6.918;2023-09-19T05:44:40;13.15;;;3.03;;
13801;SDS011;6972;51.518;6.918;2023-09-19T05:47:06;8.68;;;2.78;;
13801;SDS011;6972;51.518;6.918;2023-09-19T05:49:34;8.93;;;3.00;;
13801;SDS011;6972;51.518;6.918;2023-09-19T05:52:03;14.50;;;2.60;;
13801;SDS011;6972;51.518;6.918;2023-09-19T05:54:29;11.38;;;2.92;;
13801;SDS011;6972;51.518;6.918;2023-09-19T05:56:55;9.02;;;2.92;;
13801;SDS011;6972;51.518;6.918;2023-09-19T05:59:25;12.88;;;3.30;;
13801;SDS011;6972;51.518;6.918;2023-09-19T06:01:51;7.13;;;2.53;;
13801;SDS011;6972;51.518;6.918;2023-09-19T06:04:17;9.63;;;2.97;;
13801;SDS011;6972;51.518;6.918;2023-09-19T06:06:44;9.80;;;4.07;;
13801;SDS011;6972;51.518;6.918;2023-09-19T06:09:12;16.58;;;3.90;;
13801;SDS011;6972;51.518;6.918;2023-09-19T06:11:38;12.18;;;2.85;;
13801;SDS011;6972;51.518;6.918;2023-09-19T06:14:05;9.38;;;2.85;;
13801;SDS011;6972;51.518;6.918;2023-09-19T06:16:31;9.90;;;3.13;;
13801;SDS011;6972;51.518;6.918;2023-09-19T06:18:57;10.55;;;2.83;;
13801;SDS011;6972;51.518;6.918;2023-09-19T06:21:27;8.35;;;2.83;;
13801;SDS011;6972;51.518;6.918;2023-09-19T06:23:53;9.70;;;3.20;;
13801;SDS011;6972;51.518;6.918;2023-09-19T06:26:19;10.93;;;3.28;;
13801;SDS011;6972;51.518;6.918;2023-09-19T06:28:45;12.10;;;3.50;;
13801;SDS011;6972;51.518;6.918;2023-09-19T06:31:12;10.05;;;3.28;;
13801;SDS011;6972;51.518;6.918;2023-09-19T06:33:38;9.65;;;3.33;;
13801;SDS011;6972;51.518;6.918;2023-09-19T06:36:07;12.10;;;3.80;;
13801;SDS011;6972;51.518;6.918;2023-09-19T06:38:33;13.70;;;2.95;;
13801;SDS011;6972;51.518;6.918;2023-09-19T06:41:01;6.97;;;2.78;;
13801;SDS011;6972;51.518;6.918;2023-09-19T06:43:30;11.43;;;2.83;;
13801;SDS011;6972;51.518;6.918;2023-09-19T06:45:59;10.25;;;3.03;;
13801;SDS011;6972;51.518;6.918;2023-09-19T06:48:25;6.90;;;2.78;;
13801;SDS011;6972;51.518;6.918;2023-09-19T06:50:58;10.90;;;3.00;;
13801;SDS011;6972;51.518;6.918;2023-09-19T06:53:27;12.35;;;3.15;;
13801;SDS011;6972;51.518;6.918;2023-09-19T06:55:56;11.30;;;2.70;;
13801;SDS011;6972;51.518;6.918;2023-09-19T06:58:23;11.30;;;3.03;;
13801;SDS011;6972;51.518;6.918;2023-09-19T07:00:49;13.13;;;2.38;;
13801;SDS011;6972;51.518;6.918;2023-09-19T07:03:18;8.68;;;2.50;;
13801;SDS011;6972;51.518;6.918;2023-09-19T07:05:47;12.30;;;2.60;;
13801;SDS011;6972;51.518;6.918;2023-09-19T07:08:13;10.13;;;2.70;;
13801;SDS011;6972;51.518;6.918;2023-09-19T07:10:40;10.57;;;3.08;;
13801;SDS011;6972;51.518;6.918;2023-09-19T07:13:13;8.80;;;2.42;;
13801;SDS011;6972;51.518;6.918;2023-09-19T07:15:41;10.10;;;3.03;;
13801;SDS011;6972;51.518;6.918;2023-09-19T07:18:11;10.57;;;2.60;;
13801;SDS011;6972;51.518;6.918;2023-09-19T07:20:39;10.02;;;2.90;;
13801;SDS011;6972;51.518;6.918;2023-09-19T07:23:10;8.02;;;2.58;;
13801;SDS011;6972;51.518;6.918;2023-09-19T07:25:38;10.52;;;2.83;;
13801;SDS011;6972;51.518;6.918;2023-09-19T07:28:05;10.27;;;2.65;;
13801;SDS011;6972;51.518;6.918;2023-09-19T07:30:31;14.27;;;3.28;;
13801;SDS011;6972;51.518;6.918;2023-09-19T07:33:01;11.55;;;3.05;;
13801;SDS011;6972;51.518;6.918;2023-09-19T07:35:27;9.07;;;3.00;;
13801;SDS011;6972;51.518;6.918;2023-09-19T07:37:53;11.48;;;3.45;;
13801;SDS011;6972;51.518;6.918;2023-09-19T07:40:21;13.60;;;2.90;;
13801;SDS011;6972;51.518;6.918;2023-09-19T07:42:48;13.82;;;3.10;;
13801;SDS011;6972;51.518;6.918;2023-09-19T07:45:15;13.50;;;3.75;;
13801;SDS011;6972;51.518;6.918;2023-09-19T07:47:47;10.75;;;3.42;;
13801;SDS011;6972;51.518;6.918;2023-09-19T07:50:14;13.68;;;3.42;;
13801;SDS011;6972;51.518;6.918;2023-09-19T07:52:41;10.13;;;3.10;;
13801;SDS011;6972;51.518;6.918;2023-09-19T07:55:08;12.07;;;3.22;;
13801;SDS011;6972;51.518;6.918;2023-09-19T07:57:34;13.32;;;3.30;;
13801;SDS011;6972;51.518;6.918;2023-09-19T08:00:01;10.10;;;2.90;;
13801;SDS011;6972;51.518;6.918;2023-09-19T08:02:29;10.23;;;2.72;;
13801;SDS011;6972;51.518;6.918;2023-09-19T08:04:55;16.02;;;3.42;;
13801;SDS011;6972;51.518;6.918;2023-09-19T08:07:25;9.07;;;2.72;;
13801;SDS011;6972;51.518;6.918;2023-09-19T08:09:51;9.73;;;3.10;;
13801;SDS011;6972;51.518;6.918;2023-09-19T08:12:17;12.45;;;2.58;;
13801;SDS011;6972;51.518;6.918;2023-09-19T08:14:44;13.65;;;2.85;;
13801;SDS011;6972;51.518;6.918;2023-09-19T08:17:12;8.68;;;2.83;;
13801;SDS011;6972;51.518;6.918;2023-09-19T08:19:38;11.88;;;3.05;;
13801;SDS011;6972;51.518;6.918;2023-09-19T08:22:06;13.15;;;3.00;;
13801;SDS011;6972;51.518;6.918;2023-09-19T08:24:35;11.68;;;2.95;;
13801;SDS011;6972;51.518;6.918;2023-09-19T08:27:01;9.98;;;2.58;;
13801;SDS011;6972;51.518;6.918;2023-09-19T08:29:29;10.52;;;2.80;;
13801;SDS011;6972;51.518;6.918;2023-09-19T08:31:55;10.40;;;3.15;;
13801;SDS011;6972;51.518;6.918;2023-09-19T08:34:22;14.57;;;3.70;;
13801;SDS011;6972;51.518;6.918;2023-09-19T08:36:55;10.88;;;2.83;;
13801;SDS011;6972;51.518;6.918;2023-09-19T08:39:22;13.75;;;2.65;;
13801;SDS011;6972;51.518;6.918;2023-09-19T08:41:48;12.18;;;3.30;;
13801;SDS011;6972;51.518;6.918;2023-09-19T08:44:14;13.15;;;3.17;;
13801;SDS011;6972;51.518;6.918;2023-09-19T08:46:41;9.32;;;2.88;;
13801;SDS011;6972;51.518;6.918;2023-09-19T08:49:09;12.90;;;3.30;;
13801;SDS011;6972;51.518;6.918;2023-09-19T08:51:41;16.25;;;3.90;;
13801;SDS011;6972;51.518;6.918;2023-09-19T08:54:10;10.63;;;3.17;;
13801;SDS011;6972;51.518;6.918;2023-09-19T08:56:38;10.77;;;3.55;;
13801;SDS011;6972;51.518;6.918;2023-09-19T08:59:05;9.68;;;2.60;;
13801;SDS011;6972;51.518;6.918;2023-09-19T09:01:33;6.38;;;2.13;;
13801;SDS011;6972;51.518;6.918;2023-09-19T09:03:59;11.60;;;2.90;;
13801;SDS011;6972;51.518;6.918;2023-09-19T09:06:26;7.90;;;2.53;;
13801;SDS011;6972;51.518;6.918;2023-09-19T09:08:57;9.63;;;3.00;;
13801;SDS011;6972;51.518;6.918;2023-09-19T09:11:23;12.43;;;3.42;;
13801;SDS011;6972;51.518;6.918;2023-09-19T09:13:53;10.98;;;3.13;;
13801;SDS011;6972;51.518;6.918;2023-09-19T09:16:19;6.65;;;2.78;;
13801;SDS011;6972;51.518;6.918;2023-09-19T09:18:45;13.95;;;3.53;;
13801;SDS011;6972;51.518;6.918;2023-09-19T09:21:17;10.43;;;3.15;;
13801;SDS011;6972;51.518;6.918;2023-09-19T09:23:43;10.68;;;3.17;;
13801;SDS011;6972;51.518;6.918;2023-09-19T09:26:10;9.00;;;2.55;;
13801;SDS011;6972;51.518;6.918;2023-09-19T09:28:44;9.82;;;2.83;;
13801;SDS011;6972;51.518;6.918;2023-09-19T09:31:23;7.95;;;2.55;;
13801;SDS011;6972;51.518;6.918;2023-09-19T09:33:53;8.13;;;3.28;;
13801;SDS011;6972;51.518;6.918;2023-09-19T09:36:33;8.43;;;2.95;;
13801;SDS011;6972;51.518;6.918;2023-09-19T09:38:59;13.40;;;3.90;;
13801;SDS011;6972;51.518;6.918;2023-09-19T09:41:40;10.20;;;3.53;;
13801;SDS011;6972;51.518;6.918;2023-09-19T09:44:13;12.32;;;3.30;;
13801;SDS011;6972;51.518;6.918;2023-09-19T09:46:48;8.98;;;2.78;;
13801;SDS011;6972;51.518;6.918;2023-09-19T09:49:15;11.60;;;2.60;;
13801;SDS011;6972;51.518;6.918;2023-09-19T09:52:00;13.38;;;2.78;;
13801;SDS011;6972;51.518;6.918;2023-09-19T09:54:30;10.55;;;2.90;;
13801;SDS011;6972;51.518;6.918;2023-09-19T10:02:27;11.90;;;3.00;;
13801;SDS011;6972;51.518;6.918;2023-09-19T10:05:11;9.38;;;2.35;;
13801;SDS011;6972;51.518;6.918;2023-09-19T10:07:53;8.32;;;2.67;;
13801;SDS011;6972;51.518;6.918;2023-09-19T10:10:32;10.20;;;2.80;;
13801;SDS011;6972;51.518;6.918;2023-09-19T10:13:14;11.18;;;3.20;;
13801;SDS011;6972;51.518;6.918;2023-09-19T10:15:43;13.30;;;2.72;;
13801;SDS011;6972;51.518;6.918;2023-09-19T10:18:14;8.80;;;3.42;;
13801;SDS011;6972;51.518;6.918;2023-09-19T10:20:43;8.93;;;2.60;;
13801;SDS011;6972;51.518;6.918;2023-09-19T10:23:11;8.07;;;2.90;;
13801;SDS011;6972;51.518;6.918;2023-09-19T10:25:38;12.50;;;3.17;;
13801;SDS011;6972;51.518;6.918;2023-09-19T10:28:08;9.77;;;3.10;;
13801;SDS011;6972;51.518;6.918;2023-09-19T10:30:39;6.32;;;2.67;;
13801;SDS011;6972;51.518;6.918;2023-09-19T10:33:09;9.60;;;3.28;;
13801;SDS011;6972;51.518;6.918;2023-09-19T10:35:38;9.20;;;2.85;;
13801;SDS011;6972;51.518;6.918;2023-09-19T10:38:07;6.85;;;3.22;;
13801;SDS011;6972;51.518;6.918;2023-09-19T10:40:34;8.35;;;2.85;;
13801;SDS011;6972;51.518;6.918;2023-09-19T10:43:02;8.93;;;2.70;;
13801;SDS011;6972;51.518;6.918;2023-09-19T10:45:32;8.50;;;2.60;;
13801;SDS011;6972;51.518;6.918;2023-09-19T10:47:59;9.00;;;2.92;;
13801;SDS011;6972;51.518;6.918;2023-09-19T10:50:27;11.30;;;3.42;;
13801;SDS011;6972;51.518;6.918;2023-09-19T10:52:59;12.82;;;2.75;;
13801;SDS011;6972;51.518;6.918;2023-09-19T10:55:29;7.35;;;2.88;;
13801;SDS011;6972;51.518;6.918;2023-09-19T10:57:56;8.63;;;2.67;;
13801;SDS011;6972;51.518;6.918;2023-09-19T11:00:53;13.52;;;3.30;;
13801;SDS011;6972;51.518;6.918;2023-09-19T11:03:19;7.45;;;2.38;;
13801;SDS011;6972;51.518;6.918;2023-09-19T11:06:05;6.72;;;2.30;;
13801;SDS011;6972;51.518;6.918;2023-09-19T11:08:53;10.35;;;2.75;;
13801;SDS011;6972;51.518;6.918;2023-09-19T11:16:39;7.10;;;2.38;;
13801;SDS011;6972;51.518;6.918;2023-09-19T11:19:06;7.25;;;2.75;;
13801;SDS011;6972;51.518;6.918;2023-09-19T11:26:47;8.80;;;2.83;;
13801;SDS011;6972;51.518;6.918;2023-09-19T11:29:26;8.07;;;2.65;;
13801;SDS011;6972;51.518;6.918;2023-09-19T11:31:53;10.88;;;3.30;;
13801;SDS011;6972;51.518;6.918;2023-09-19T11:40:10;7.53;;;2.70;;
13801;SDS011;6972;51.518;6.918;2023-09-19T11:42:41;9.10;;;2.60;;
13801;SDS011;6972;51.518;6.918;2023-09-19T11:48:23;8.85;;;3.08;;
13801;SDS011;6972;51.518;6.918;2023-09-19T11:50:52;7.38;;;2.53;;
13801;SDS011;6972;51.518;6.918;2023-09-19T11:53:18;7.80;;;2.35;;
13801;SDS011;6972;51.518;6.918;2023-09-19T11:55:45;8.98;;;2.45;;
13801;SDS011;6972;51.518;6.918;2023-09-19T11:58:17;7.50;;;2.50;;
13801;SDS011;6972;51.518;6.918;2023-09-19T12:00:45;9.73;;;2.50;;
13801;SDS011;6972;51.518;6.918;2023-09-19T12:03:11;4.68;;;2.05;;
13801;SDS011;6972;51.518;6.918;2023-09-19T12:05:39;9.48;;;2.33;;
13801;SDS011;6972;51.518;6.918;2023-09-19T12:08:07;4.65;;;1.98;;
13801;SDS011;6972;51.518;6.918;2023-09-19T12:10:47;5.63;;;2.40;;
13801;SDS011;6972;51.518;6.918;2023-09-19T12:13:17;10.38;;;2.80;;
13801;SDS011;6972;51.518;6.918;2023-09-19T12:15:43;7.25;;;2.33;;
13801;SDS011;6972;51.518;6.918;2023-09-19T12:18:25;9.52;;;2.72;;
13801;SDS011;6972;51.518;6.918;2023-09-19T12:20:52;11.48;;;2.20;;
13801;SDS011;6972;51.518;6.918;2023-09-19T12:23:19;6.97;;;2.80;;
13801;SDS011;6972;51.518;6.918;2023-09-19T12:25:46;6.10;;;1.95;;
13801;SDS011;6972;51.518;6.918;2023-09-19T12:28:12;10.05;;;2.70;;
13801;SDS011;6972;51.518;6.918;2023-09-19T12:30:38;11.15;;;2.67;;
13801;SDS011;6972;51.518;6.918;2023-09-19T12:33:18;7.78;;;2.47;;
13801;SDS011;6972;51.518;6.918;2023-09-19T12:35:46;9.70;;;2.78;;
13801;SDS011;6972;51.518;6.918;2023-09-19T12:38:22;6.32;;;2.55;;
13801;SDS011;6972;51.518;6.918;2023-09-19T12:40:49;11.32;;;2.65;;
13801;SDS011;6972;51.518;6.918;2023-09-19T12:43:16;4.85;;;2.00;;
13801;SDS011;6972;51.518;6.918;2023-09-19T12:45:42;6.53;;;2.33;;
13801;SDS011;6972;51.518;6.918;2023-09-19T12:48:22;5.93;;;2.20;;
13801;SDS011;6972;51.518;6.918;2023-09-19T12:53:31;4.05;;;1.98;;
13801;SDS011;6972;51.518;6.918;2023-09-19T12:55:58;5.28;;;2.00;;
13801;SDS011;6972;51.518;6.918;2023-09-19T12:58:25;7.35;;;2.10;;
13801;SDS011;6972;51.518;6.918;2023-09-19T13:00:51;5.53;;;2.33;;
13801;SDS011;6972;51.518;6.918;2023-09-19T13:03:24;7.75;;;2.50;;
13801;SDS011;6972;51.518;6.918;2023-09-19T13:08:20;6.97;;;2.20;;
13801;SDS011;6972;51.518;6.918;2023-09-19T13:14:29;3.92;;;1.75;;
13801;SDS011;6972;51.518;6.918;2023-09-19T13:19:40;10.85;;;2.25;;
13801;SDS011;6972;51.518;6.918;2023-09-19T13:24:56;8.85;;;2.70;;
13801;SDS011;6972;51.518;6.918;2023-09-19T13:27:25;5.95;;;2.05;;
13801;SDS011;6972;51.518;6.918;2023-09-19T13:29:52;4.55;;;1.90;;
13801;SDS011;6972;51.518;6.918;2023-09-19T13:32:18;8.10;;;2.28;;
13801;SDS011;6972;51.518;6.918;2023-09-19T13:34:44;3.97;;;1.90;;
13801;SDS011;6972;51.518;6.918;2023-09-19T13:37:10;5.65;;;2.00;;
13801;SDS011;6972;51.518;6.918;2023-09-19T13:39:38;6.05;;;1.80;;
13801;SDS011;6972;51.518;6.918;2023-09-19T13:42:12;3.45;;;1.75;;
13801;SDS011;6972;51.518;6.918;2023-09-19T13:44:38;7.90;;;2.10;;
13801;SDS011;6972;51.518;6.918;2023-09-19T13:47:06;4.68;;;2.05;;
13801;SDS011;6972;51.518;6.918;2023-09-19T13:49:38;4.97;;;1.70;;
13801;SDS011;6972;51.518;6.918;2023-09-19T13:52:04;3.63;;;1.70;;
13801;SDS011;6972;51.518;6.918;2023-09-19T13:54:30;6.95;;;2.03;;
13801;SDS011;6972;51.518;6.918;2023-09-19T13:56:56;6.35;;;2.00;;
13801;SDS011;6972;51.518;6.918;2023-09-19T13:59:25;5.60;;;1.70;;
13801;SDS011;6972;51.518;6.918;2023-09-19T14:01:53;5.18;;;2.08;;
13801;SDS011;6972;51.518;6.918;2023-09-19T14:04:19;4.72;;;1.75;;
13801;SDS011;6972;51.518;6.918;2023-09-19T14:06:47;6.20;;;1.77;;
13801;SDS011;6972;51.518;6.918;2023-09-19T14:09:13;5.25;;;1.55;;
13801;SDS011;6972;51.518;6.918;2023-09-19T14:11:44;3.25;;;1.42;;
13801;SDS011;6972;51.518;6.918;2023-09-19T14:14:12;8.27;;;1.83;;
13801;SDS011;6972;51.518;6.918;2023-09-19T14:16:38;4.75;;;1.55;;
13801;SDS011;6972;51.518;6.918;2023-09-19T14:19:06;8.63;;;2.33;;
13801;SDS011;6972;51.518;6.918;2023-09-19T14:21:33;5.97;;;2.20;;
13801;SDS011;6972;51.518;6.918;2023-09-19T14:24:01;4.32;;;1.63;;
13801;SDS011;6972;51.518;6.918;2023-09-19T14:26:27;3.85;;;1.77;;
13801;SDS011;6972;51.518;6.918;2023-09-19T14:28:53;2.22;;;1.50;;
13801;SDS011;6972;51.518;6.918;2023-09-19T14:31:19;6.82;;;1.80;;
13801;SDS011;6972;51.518;6.918;2023-09-19T14:33:45;6.78;;;1.80;;
13801;SDS011;6972;51.518;6.918;2023-09-19T14:36:11;3.47;;;1.70;;
13801;SDS011;6972;51.518;6.918;2023-09-19T14:38:38;3.72;;;1.73;;
13801;SDS011;6972;51.518;6.918;2023-09-19T14:41:05;5.15;;;1.77;;
13801;SDS011;6972;51.518;6.918;2023-09-19T14:43:31;3.67;;;1.35;;
13801;SDS011;6972;51.518;6.918;2023-09-19T14:46:02;2.33;;;1.30;;
13801;SDS011;6972;51.518;6.918;2023-09-19T14:48:28;4.85;;;1.63;;
13801;SDS011;6972;51.518;6.918;2023-09-19T14:50:54;3.70;;;1.80;;
13801;SDS011;6972;51.518;6.918;2023-09-19T14:53:20;4.65;;;1.45;;
13801;SDS011;6972;51.518;6.918;2023-09-19T14:55:47;10.43;;;2.15;;
13801;SDS011;6972;51.518;6.918;2023-09-19T14:58:16;3.88;;;1.50;;
13801;SDS011;6972;51.518;6.918;2023-09-19T15:00:43;5.20;;;1.67;;
13801;SDS011;6972;51.518;6.918;2023-09-19T15:03:10;4.25;;;1.25;;
13801;SDS011;6972;51.518;6.918;2023-09-19T15:05:36;2.92;;;1.40;;
13801;SDS011;6972;51.518;6.918;2023-09-19T15:08:02;5.47;;;1.67;;
13801;SDS011;6972;51.518;6.918;2023-09-19T15:10:29;2.85;;;1.52;;
13801;SDS011;6972;51.518;6.918;2023-09-19T15:12:55;6.43;;;1.73;;
13801;SDS011;6972;51.518;6.918;2023-09-19T15:15:21;3.47;;;1.40;;
13801;SDS011;6972;51.518;6.918;2023-09-19T15:17:47;2.83;;;1.40;;
13801;SDS011;6972;51.518;6.918;2023-09-19T15:20:13;4.18;;;2.00;;
13801;SDS011;6972;51.518;6.918;2023-09-19T15:22:40;4.22;;;1.75;;
13801;SDS011;6972;51.518;6.918;2023-09-19T15:25:09;3.88;;;1.50;;
13801;SDS011;6972;51.518;6.918;2023-09-19T15:27:35;3.72;;;1.30;;
13801;SDS011;6972;51.518;6.918;2023-09-19T15:30:02;1.60;;;1.20;;
13801;SDS011;6972;51.518;6.918;2023-09-19T15:32:29;6.28;;;1.35;;
13801;SDS011;6972;51.518;6.918;2023-09-19T15:34:59;4.63;;;1.50;;
13801;SDS011;6972;51.518;6.918;2023-09-19T15:37:25;3.17;;;1.60;;
13801;SDS011;6972;51.518;6.918;2023-09-19T15:39:52;3.30;;;1.20;;
13801;SDS011;6972;51.518;6.918;2023-09-19T15:42:18;4.32;;;1.80;;
13801;SDS011;6972;51.518;6.918;2023-09-19T15:44:45;2.03;;;1.40;;
13801;SDS011;6972;51.518;6.918;2023-09-19T15:47:14;2.03;;;1.45;;
13801;SDS011;6972;51.518;6.918;2023-09-19T15:49:40;4.97;;;1.50;;
13801;SDS011;6972;51.518;6.918;2023-09-19T15:52:06;3.60;;;1.30;;
13801;SDS011;6972;51.518;6.918;2023-09-19T15:54:33;5.20;;;1.60;;
13801;SDS011;6972;51.518;6.918;2023-09-19T15:57:00;2.35;;;1.20;;